Terminal Aerodrome Forecast
Issued by NWS

Home | Current Version | Previous Version | Text Only | Print | Product List | Glossary On
Versions: 1 2 3 4 5 6 7 8 9 10 11 12 13 14
000
FTUS46 KHNX 172320
TAFFAT
TAF
KFAT 172320Z 1800/1824 VRB03KT 6SM HZ BKN200
     FM180800 12005KT 3SM BR SCT080 BKN200
     FM181400 13007KT 3SM BR BKN080
     FM182000 13009KT 6SM HZ SCT050 OVC080=

USA.gov is the U.S. government's official web portal to all federal, state and local government web resources and services.